Time;durP1;ratioP1;P1;durP2;ratioP2;P2;SDS_P1;SDS_P2;PMS_P1;PMS_P2;Temp;Humidity;BMP_temperature;BMP_pressure;BME280_temperature;BME280_humidity;BME280_pressure;Samples;Min_cycle;Max_cycle;Signal;HPM_P1;HPM_P2
2022/03/22 00:00:49;;;;;;;56.13;27.58;;;6.30;72.50;;;;;;4936088;29;20052;-69
2022/03/22 00:03:17;;;;;;;57.58;28.20;;;6.20;72.60;;;;;;4934822;29;20060;-69
2022/03/22 00:05:45;;;;;;;58.13;29.08;;;6.30;72.70;;;;;;4936133;29;20497;-69
2022/03/22 00:08:13;;;;;;;53.05;27.25;;;6.20;72.70;;;;;;4936468;29;20054;-70
2022/03/22 00:10:41;;;;;;;60.15;28.73;;;6.10;72.90;;;;;;4934038;29;20641;-69
2022/03/22 00:13:08;;;;;;;56.22;29.58;;;6.00;73.00;;;;;;4935734;29;20055;-70
2022/03/22 00:15:36;;;;;;;55.53;29.45;;;6.00;73.40;;;;;;4936898;29;20047;-69
2022/03/22 00:18:25;;;;;;;55.95;29.30;;;5.90;73.60;;;;;;4937226;29;20048;-69
2022/03/22 00:20:52;;;;;;;58.45;29.95;;;5.80;73.80;;;;;;4938078;29;20051;-70
2022/03/22 00:23:21;;;;;;;53.05;28.85;;;5.70;74.00;;;;;;4947596;29;20048;-70
2022/03/22 00:25:49;;;;;;;61.67;30.00;;;5.50;74.30;;;;;;4936385;29;20437;-69
2022/03/22 00:28:17;;;;;;;60.47;29.90;;;5.40;74.50;;;;;;4936526;29;20052;-71
2022/03/22 00:30:45;;;;;;;57.15;29.00;;;5.30;74.80;;;;;;4930698;29;20055;-70
2022/03/22 00:33:13;;;;;;;57.70;29.05;;;5.30;75.10;;;;;;4918239;29;20483;-68
2022/03/22 00:35:41;;;;;;;55.10;29.20;;;5.20;75.30;;;;;;4904919;29;20055;-69
2022/03/22 00:38:11;;;;;;;61.83;30.42;;;5.20;75.60;;;;;;4936936;29;20047;-69
2022/03/22 00:40:40;;;;;;;62.38;30.77;;;5.30;75.70;;;;;;4936405;29;20489;-68
2022/03/22 00:43:08;;;;;;;61.35;30.00;;;5.30;75.90;;;;;;4936633;29;20052;-69
2022/03/22 00:45:37;;;;;;;56.45;30.27;;;5.30;75.90;;;;;;4936868;29;20047;-69
2022/03/22 00:48:08;;;;;;;56.85;30.70;;;5.30;76.00;;;;;;4919526;29;20584;-69
2022/03/22 00:50:37;;;;;;;63.03;30.55;;;5.30;76.10;;;;;;4935158;29;20043;-69
2022/03/22 00:53:07;;;;;;;62.63;30.35;;;5.30;76.10;;;;;;4935058;29;20051;-69
2022/03/22 00:55:40;;;;;;;64.18;31.50;;;5.30;76.20;;;;;;4935085;29;20535;-69
2022/03/22 00:58:08;;;;;;;66.88;31.80;;;5.20;76.30;;;;;;4902091;29;20067;-69
2022/03/22 01:00:36;;;;;;;64.63;31.20;;;5.20;76.50;;;;;;4934637;29;20051;-69
2022/03/22 01:03:05;;;;;;;63.25;31.80;;;5.00;76.70;;;;;;4935451;29;20058;-69
2022/03/22 01:05:35;;;;;;;65.80;31.83;;;5.00;76.90;;;;;;4934397;29;20044;-70
2022/03/22 01:08:06;;;;;;;66.13;32.60;;;4.90;77.10;;;;;;4934386;29;20059;-69
2022/03/22 01:10:38;;;;;;;62.22;32.67;;;4.80;77.30;;;;;;4917388;29;20063;-69
2022/03/22 01:13:06;;;;;;;68.80;34.20;;;4.80;77.50;;;;;;4934564;29;20056;-70
2022/03/22 01:15:35;;;;;;;64.05;34.17;;;4.80;77.80;;;;;;4917529;29;20044;-69
2022/03/22 01:18:07;;;;;;;69.30;33.15;;;4.80;78.00;;;;;;4936247;29;20417;-69
2022/03/22 01:20:39;;;;;;;62.97;33.55;;;4.70;78.10;;;;;;4919107;29;20055;-69
2022/03/22 01:23:08;;;;;;;69.30;34.35;;;4.60;78.30;;;;;;4936589;29;20058;-69
2022/03/22 01:25:38;;;;;;;65.35;31.95;;;4.60;78.50;;;;;;4936092;29;20075;-70
2022/03/22 01:28:08;;;;;;;72.30;33.25;;;4.50;78.70;;;;;;4935655;29;20515;-70
2022/03/22 01:30:36;;;;;;;69.40;33.40;;;4.50;78.90;;;;;;4935621;29;20553;-69
2022/03/22 01:33:05;;;;;;;64.10;33.35;;;4.50;79.10;;;;;;4917020;29;20043;-69
2022/03/22 01:35:33;;;;;;;68.30;34.55;;;4.40;79.30;;;;;;4932458;29;20047;-69
2022/03/22 01:38:02;;;;;;;68.07;33.03;;;4.40;79.50;;;;;;4933359;29;20387;-70
2022/03/22 01:40:31;;;;;;;74.47;34.33;;;4.40;79.60;;;;;;4933609;29;20052;-71
2022/03/22 01:42:59;;;;;;;66.50;34.00;;;4.30;79.70;;;;;;4928157;29;20366;-68
2022/03/22 01:45:28;;;;;;;74.80;36.08;;;4.30;79.80;;;;;;4931007;29;20671;-69
2022/03/22 01:48:01;;;;;;;65.38;34.05;;;4.30;80.10;;;;;;4933721;29;20054;-68
2022/03/22 01:50:29;;;;;;;72.13;35.17;;;4.30;80.60;;;;;;4916428;29;20048;-68
2022/03/22 01:52:59;;;;;;;69.78;35.35;;;4.20;80.70;;;;;;4935433;29;20047;-68
2022/03/22 01:55:28;;;;;;;70.03;34.65;;;4.20;80.70;;;;;;4934389;29;20510;-68
2022/03/22 01:57:56;;;;;;;77.00;34.92;;;4.10;80.70;;;;;;4918568;29;20055;-69
2022/03/22 02:00:25;;;;;;;74.53;35.78;;;4.10;80.80;;;;;;4932778;29;20409;-68
2022/03/22 02:05:51;;;;;;;74.10;36.45;;;4.00;81.20;;;;;;4935274;29;20044;-68
2022/03/22 02:08:20;;;;;;;81.57;37.00;;;3.90;81.30;;;;;;4933514;29;20055;-68
2022/03/22 02:10:48;;;;;;;82.05;36.25;;;3.90;81.50;;;;;;4935066;29;20051;-69
2022/03/22 02:13:16;;;;;;;74.28;36.10;;;3.80;81.80;;;;;;4934294;29;20055;-69
2022/03/22 02:15:48;;;;;;;82.20;36.53;;;3.90;81.90;;;;;;4902168;29;20047;-68
2022/03/22 02:18:16;;;;;;;79.32;36.75;;;3.90;82.10;;;;;;4934057;29;20509;-69
2022/03/22 02:20:46;;;;;;;68.30;34.83;;;3.80;82.10;;;;;;4934531;29;20409;-69
2022/03/22 02:23:23;;;;;;;71.60;36.40;;;3.80;82.10;;;;;;4935212;29;20528;-69
2022/03/22 02:25:51;;;;;;;81.55;38.20;;;3.80;82.20;;;;;;4934999;29;20063;-69
2022/03/22 02:28:20;;;;;;;83.38;37.58;;;3.80;82.30;;;;;;4934499;29;20062;-69
2022/03/22 02:30:52;;;;;;;81.10;36.47;;;3.70;82.40;;;;;;4917882;29;20047;-69
2022/03/22 02:33:21;;;;;;;74.50;36.25;;;3.70;82.60;;;;;;4934543;29;20055;-69
2022/03/22 02:35:48;;;;;;;81.88;36.25;;;3.70;82.70;;;;;;4934347;29;20402;-69
2022/03/22 02:38:16;;;;;;;75.85;35.95;;;3.70;83.00;;;;;;4934040;29;20043;-68
2022/03/22 02:40:46;;;;;;;70.95;34.70;;;3.60;83.00;;;;;;4924231;29;20048;-68
2022/03/22 02:43:15;;;;;;;76.45;36.15;;;3.60;83.00;;;;;;4934548;29;20052;-68
2022/03/22 02:45:42;;;;;;;80.70;35.80;;;3.60;83.20;;;;;;4934828;29;20048;-68
2022/03/22 02:48:11;;;;;;;79.88;36.33;;;3.60;83.30;;;;;;4916793;29;20040;-69
2022/03/22 02:50:39;;;;;;;77.97;37.35;;;3.60;83.30;;;;;;4934377;29;20043;-69
2022/03/22 02:53:07;;;;;;;80.55;36.10;;;3.60;83.40;;;;;;4917357;29;20048;-69
2022/03/22 02:55:35;;;;;;;72.45;35.08;;;3.50;83.50;;;;;;4934423;29;20051;-69
2022/03/22 02:58:03;;;;;;;75.68;36.05;;;3.50;83.60;;;;;;4916351;29;20051;-69
2022/03/22 03:00:31;;;;;;;73.85;36.08;;;3.50;83.70;;;;;;4932368;29;20052;-69
2022/03/22 03:02:58;;;;;;;69.68;35.55;;;3.50;83.70;;;;;;4916775;29;20070;-69
2022/03/22 03:05:26;;;;;;;73.97;36.13;;;3.50;83.70;;;;;;4934437;29;20417;-69
2022/03/22 03:07:54;;;;;;;80.70;35.97;;;3.40;83.80;;;;;;4929983;29;20055;-69
2022/03/22 03:10:22;;;;;;;80.85;37.10;;;3.40;83.90;;;;;;4931808;29;20048;-69
2022/03/22 03:13:00;;;;;;;78.18;35.53;;;3.40;84.00;;;;;;4934205;29;20067;-69
2022/03/22 03:15:29;;;;;;;71.68;34.67;;;3.50;84.20;;;;;;4923598;29;20059;-69
2022/03/22 03:17:58;;;;;;;74.28;35.97;;;3.40;84.20;;;;;;4932192;29;20047;-69
2022/03/22 03:20:26;;;;;;;80.28;35.83;;;3.50;84.20;;;;;;4932771;29;20035;-69
2022/03/22 03:22:54;;;;;;;79.03;35.33;;;3.50;84.40;;;;;;4932304;29;20044;-69
2022/03/22 03:25:22;;;;;;;78.05;36.40;;;3.50;84.30;;;;;;4932682;29;20402;-69
2022/03/22 03:27:50;;;;;;;72.43;34.00;;;3.50;84.30;;;;;;4932343;29;20050;-69
2022/03/22 03:30:17;;;;;;;76.55;35.58;;;3.50;84.30;;;;;;4932264;29;20044;-68
2022/03/22 03:32:45;;;;;;;72.60;36.35;;;3.50;84.40;;;;;;4915744;29;20430;-68
2022/03/22 03:35:13;;;;;;;72.15;34.17;;;3.40;84.40;;;;;;4933248;29;20062;-69
2022/03/22 03:37:43;;;;;;;81.57;36.05;;;3.40;84.50;;;;;;4917024;29;20059;-69
2022/03/22 03:40:12;;;;;;;78.22;36.75;;;3.30;84.50;;;;;;4933588;29;20051;-69
2022/03/22 03:42:45;;;;;;;76.88;36.22;;;3.30;84.60;;;;;;4924193;29;20047;-69
2022/03/22 03:47:59;;;;;;;84.05;36.47;;;3.30;84.70;;;;;;4932817;29;20510;-69
2022/03/22 03:50:28;;;;;;;76.60;36.38;;;3.30;84.70;;;;;;4934282;29;20414;-69
2022/03/22 03:52:56;;;;;;;77.50;36.13;;;3.30;84.70;;;;;;4916343;29;20052;-69
2022/03/22 03:55:24;;;;;;;80.22;37.65;;;3.20;84.70;;;;;;4934195;29;20047;-69
2022/03/22 03:57:51;;;;;;;86.40;36.78;;;3.20;84.80;;;;;;4933881;29;20043;-69
2022/03/22 04:00:19;;;;;;;80.97;36.50;;;3.20;84.90;;;;;;4916539;29;20052;-68
2022/03/22 04:02:46;;;;;;;83.60;38.47;;;3.10;84.90;;;;;;4901813;29;20382;-69
2022/03/22 04:05:15;;;;;;;81.70;36.53;;;3.10;85.10;;;;;;4917040;29;20048;-70
2022/03/22 04:07:42;;;;;;;85.50;35.20;;;3.10;85.10;;;;;;4933756;29;20067;-70
2022/03/22 04:10:10;;;;;;;85.20;35.35;;;3.10;85.10;;;;;;4935926;29;20057;-69
2022/03/22 04:12:42;;;;;;;76.05;35.65;;;3.10;85.20;;;;;;4937703;29;20054;-70
2022/03/22 04:15:10;;;;;;;87.85;36.08;;;3.00;85.20;;;;;;4904440;29;20052;-70
2022/03/22 04:17:38;;;;;;;88.93;37.33;;;3.00;85.30;;;;;;4936252;29;20497;-69
2022/03/22 04:20:07;;;;;;;86.72;36.92;;;3.00;85.30;;;;;;4937071;29;20055;-71
2022/03/22 04:22:36;;;;;;;83.90;35.47;;;3.00;85.30;;;;;;4936618;29;20051;-69
2022/03/22 04:25:05;;;;;;;78.43;35.67;;;3.00;85.40;;;;;;4937253;29;20606;-69
2022/03/22 04:33:04;;;;;;;78.45;33.97;;;3.00;85.40;;;;;;4920231;29;20062;-69
2022/03/22 04:35:33;;;;;;;78.45;34.75;;;3.00;85.40;;;;;;4936218;29;20044;-69
2022/03/22 04:38:00;;;;;;;80.45;34.47;;;2.90;85.40;;;;;;4903642;29;20058;-69
2022/03/22 04:40:28;;;;;;;84.38;34.85;;;2.90;85.40;;;;;;4936856;29;20051;-69
2022/03/22 04:42:56;;;;;;;80.10;36.13;;;2.80;85.50;;;;;;4904251;29;20550;-69
2022/03/22 04:45:50;;;;;;;92.30;36.28;;;2.80;85.50;;;;;;4936734;29;20051;-69
2022/03/22 04:48:17;;;;;;;82.30;34.85;;;2.80;85.70;;;;;;4936833;29;20055;-69
2022/03/22 04:50:45;;;;;;;82.95;35.45;;;2.80;85.60;;;;;;4936861;29;20604;-69
2022/03/22 04:58:48;;;;;;;79.30;35.05;;;2.80;85.70;;;;;;4936082;29;20055;-69
2022/03/22 05:01:16;;;;;;;89.10;36.15;;;2.80;85.60;;;;;;4919659;29;20051;-69
2022/03/22 05:03:44;;;;;;;79.93;35.28;;;2.70;85.70;;;;;;4936111;29;20051;-69
2022/03/22 05:06:28;;;;;;;76.32;35.45;;;2.70;85.90;;;;;;4935770;29;20418;-70
2022/03/22 05:08:56;;;;;;;79.50;33.40;;;2.70;85.90;;;;;;4936206;29;20043;-69
2022/03/22 05:11:23;;;;;;;81.28;35.25;;;2.70;85.90;;;;;;4936172;29;20055;-70
2022/03/22 05:13:54;;;;;;;86.40;34.70;;;2.70;86.00;;;;;;4935688;29;20043;-69
2022/03/22 05:16:24;;;;;;;92.68;37.03;;;2.70;86.00;;;;;;4934242;29;20063;-70
2022/03/22 05:18:53;;;;;;;82.00;34.22;;;2.70;86.10;;;;;;4934233;29;20051;-69
2022/03/22 05:21:20;;;;;;;72.18;33.30;;;2.70;86.10;;;;;;4933484;29;20475;-69
2022/03/22 05:23:48;;;;;;;75.50;34.17;;;2.80;86.10;;;;;;4934180;29;20040;-69
2022/03/22 05:26:16;;;;;;;76.85;33.72;;;2.80;86.20;;;;;;4934268;29;20055;-69
2022/03/22 05:28:44;;;;;;;78.03;34.13;;;2.80;86.20;;;;;;4929919;29;20494;-70
2022/03/22 05:31:14;;;;;;;76.95;33.75;;;2.80;86.20;;;;;;4935515;29;20052;-69
2022/03/22 05:33:42;;;;;;;83.50;34.63;;;2.90;86.20;;;;;;4918375;29;20047;-69
2022/03/22 05:36:10;;;;;;;78.97;35.25;;;2.90;86.20;;;;;;4936013;29;20059;-69
2022/03/22 05:38:38;;;;;;;70.30;31.35;;;2.90;86.20;;;;;;4935203;29;20395;-69
2022/03/22 05:41:07;;;;;;;74.72;32.65;;;3.00;86.20;;;;;;4935710;29;20058;-69
2022/03/22 05:43:35;;;;;;;76.57;33.03;;;3.00;86.10;;;;;;4918953;29;20043;-69
2022/03/22 05:46:03;;;;;;;74.15;32.42;;;3.00;86.00;;;;;;4935634;29;20047;-69
2022/03/22 05:48:31;;;;;;;75.25;32.85;;;3.00;86.00;;;;;;4935545;29;20444;-70
2022/03/22 05:50:59;;;;;;;73.38;33.70;;;3.00;86.00;;;;;;4935527;29;20520;-69
2022/03/22 05:53:27;;;;;;;77.93;33.25;;;3.10;86.00;;;;;;4918854;29;20051;-69
2022/03/22 05:55:55;;;;;;;71.57;33.97;;;3.10;86.00;;;;;;4935482;29;20063;-69
2022/03/22 05:58:23;;;;;;;71.68;32.40;;;3.20;86.00;;;;;;4935555;29;20044;-69
2022/03/22 06:00:50;;;;;;;75.35;33.25;;;3.30;85.90;;;;;;4934871;29;20035;-69
2022/03/22 06:03:18;;;;;;;68.60;32.63;;;3.30;85.90;;;;;;4935680;29;20040;-69
2022/03/22 06:05:46;;;;;;;61.80;30.55;;;3.40;85.80;;;;;;4934969;29;20040;-69
2022/03/22 06:08:14;;;;;;;72.85;32.45;;;3.60;85.70;;;;;;4934678;29;20052;-70
2022/03/22 06:10:42;;;;;;;65.50;31.58;;;3.60;85.50;;;;;;4916903;29;20128;-70
2022/03/22 06:13:10;;;;;;;69.82;33.67;;;3.70;85.40;;;;;;4934299;29;20595;-70
2022/03/22 06:15:41;;;;;;;73.13;34.63;;;3.80;85.40;;;;;;4935238;29;20497;-70
2022/03/22 06:18:10;;;;;;;71.50;34.08;;;3.80;85.30;;;;;;4918019;29;20043;-70
2022/03/22 06:20:41;;;;;;;69.10;33.60;;;3.90;85.20;;;;;;4935131;29;20621;-70
2022/03/22 06:23:11;;;;;;;72.10;33.85;;;4.00;85.10;;;;;;4934928;29;20051;-70
2022/03/22 06:25:40;;;;;;;81.38;34.05;;;4.00;85.00;;;;;;4934700;29;20367;-70
2022/03/22 06:28:09;;;;;;;71.28;34.17;;;4.10;84.90;;;;;;4918057;29;20051;-69
2022/03/22 06:30:37;;;;;;;74.05;34.00;;;4.20;84.90;;;;;;4914749;29;20044;-70
2022/03/22 06:33:24;;;;;;;72.30;33.65;;;4.20;84.80;;;;;;4917566;29;20059;-69
2022/03/22 06:35:52;;;;;;;75.20;35.83;;;4.30;84.70;;;;;;4917783;29;20055;-69
2022/03/22 06:38:20;;;;;;;73.75;34.28;;;4.30;84.60;;;;;;4917741;29;20414;-71
2022/03/22 06:40:50;;;;;;;71.93;34.40;;;4.30;84.60;;;;;;4910436;29;20055;-70
2022/03/22 06:43:19;;;;;;;73.90;35.35;;;4.30;84.60;;;;;;4917551;29;20486;-70
2022/03/22 06:45:47;;;;;;;77.20;36.28;;;4.30;84.60;;;;;;4933895;29;20056;-70
2022/03/22 06:48:16;;;;;;;75.93;33.78;;;4.30;84.70;;;;;;4934335;29;20046;-69
2022/03/22 06:50:47;;;;;;;81.00;36.97;;;4.30;84.70;;;;;;4920846;29;20079;-69
2022/03/22 06:53:15;;;;;;;75.55;36.60;;;4.40;84.70;;;;;;4931048;29;20059;-70
2022/03/22 06:55:43;;;;;;;70.10;35.10;;;4.50;84.70;;;;;;4933604;29;20055;-71
2022/03/22 06:58:12;;;;;;;75.13;36.33;;;4.60;84.60;;;;;;4901225;29;20051;-70
2022/03/22 07:00:39;;;;;;;67.53;34.92;;;4.80;84.40;;;;;;4933152;29;20052;-70
2022/03/22 07:03:07;;;;;;;70.95;34.63;;;4.80;84.30;;;;;;4933547;29;20405;-70
2022/03/22 07:05:36;;;;;;;71.78;35.45;;;5.10;84.10;;;;;;4916847;29;20055;-70
2022/03/22 07:08:04;;;;;;;68.57;34.13;;;5.30;83.80;;;;;;4933085;29;20043;-70
2022/03/22 07:10:33;;;;;;;69.15;36.10;;;5.40;83.50;;;;;;4932820;29;20063;-69
2022/03/22 07:13:05;;;;;;;66.53;33.92;;;5.60;83.20;;;;;;4918675;29;20509;-70
2022/03/22 07:15:35;;;;;;;;;;;5.80;82.90;;;;;;4931199;29;20058;-68
2022/03/22 07:18:08;;;;;;;70.15;34.15;;;5.90;82.60;;;;;;4931101;29;19930;-69
2022/03/22 07:20:36;;;;;;;70.80;36.43;;;6.10;82.40;;;;;;4928553;29;20394;-69
2022/03/22 07:23:05;;;;;;;67.32;36.67;;;6.20;82.10;;;;;;4927266;29;20048;-69
2022/03/22 07:25:33;;;;;;;69.00;35.88;;;6.30;81.90;;;;;;4894171;29;20040;-71
2022/03/22 07:28:01;;;;;;;68.38;35.22;;;6.40;81.70;;;;;;4927671;29;20051;-70
2022/03/22 07:30:29;;;;;;;66.57;35.97;;;6.50;81.60;;;;;;4928261;29;20039;-70
2022/03/22 07:32:57;;;;;;;71.63;36.55;;;6.60;81.40;;;;;;4919750;29;20055;-70
2022/03/22 07:35:25;;;;;;;74.95;38.10;;;6.70;81.20;;;;;;4933136;29;20067;-70
2022/03/22 07:37:59;;;;;;;70.95;37.42;;;6.90;81.00;;;;;;4933154;29;20051;-70
2022/03/22 07:40:28;;;;;;;72.90;38.42;;;7.00;80.80;;;;;;4910999;29;20051;-71
2022/03/22 07:42:56;;;;;;;70.82;35.92;;;7.10;80.60;;;;;;4901014;29;20075;-69
2022/03/22 07:45:25;;;;;;;72.70;37.60;;;7.30;80.30;;;;;;4917066;29;20048;-70
2022/03/22 07:47:53;;;;;;;71.63;37.78;;;7.30;79.90;;;;;;4935667;29;20047;-70
2022/03/22 07:53:07;;;;;;;71.72;37.72;;;7.50;79.40;;;;;;4933518;29;20509;-69
2022/03/22 07:55:37;;;;;;;76.32;39.17;;;7.70;79.20;;;;;;4920518;29;20063;-69
2022/03/22 07:58:06;;;;;;;75.93;38.58;;;7.80;79.00;;;;;;4920296;29;20068;-70
2022/03/22 08:00:38;;;;;;;69.78;37.92;;;7.90;78.80;;;;;;4937246;29;20059;-70
2022/03/22 08:03:10;;;;;;;73.28;38.83;;;8.00;78.50;;;;;;4933045;29;20051;-70
2022/03/22 08:05:40;;;;;;;72.85;37.65;;;8.20;78.20;;;;;;4917206;29;20050;-69
2022/03/22 08:08:08;;;;;;;72.07;38.33;;;8.30;77.90;;;;;;4934537;29;20051;-69
2022/03/22 08:10:56;;;;;;;67.95;37.78;;;8.40;77.60;;;;;;4918603;29;20052;-70
2022/03/22 08:13:24;;;;;;;71.43;38.13;;;8.60;77.30;;;;;;4927327;29;20525;-70
2022/03/22 08:15:52;;;;;;;66.75;37.95;;;8.70;77.10;;;;;;4916951;29;20056;-70
2022/03/22 08:18:19;;;;;;;74.93;38.15;;;8.80;76.80;;;;;;4914376;29;20063;-70
2022/03/22 08:20:47;;;;;;;67.97;38.13;;;8.80;76.60;;;;;;4936692;29;20043;-69
2022/03/22 08:23:15;;;;;;;71.68;38.97;;;8.80;76.30;;;;;;4914267;29;20509;-70
2022/03/22 08:25:43;;;;;;;70.07;38.00;;;9.00;76.10;;;;;;4936582;29;20055;-70
2022/03/22 08:28:12;;;;;;;67.40;38.60;;;9.10;75.90;;;;;;4937048;29;20050;-69
2022/03/22 08:30:40;;;;;;;72.35;38.55;;;9.30;75.60;;;;;;4934990;29;20055;-69
2022/03/22 08:33:10;;;;;;;64.90;36.67;;;9.40;75.40;;;;;;4935510;29;20044;-69
2022/03/22 08:35:45;;;;;;;66.75;36.83;;;9.50;75.10;;;;;;4919313;29;20051;-69
2022/03/22 08:38:15;;;;;;;71.38;37.60;;;9.50;75.00;;;;;;4937283;29;20055;-69
2022/03/22 08:40:43;;;;;;;67.07;37.67;;;9.70;74.80;;;;;;4937084;29;20047;-70
2022/03/22 08:43:11;;;;;;;71.88;37.95;;;9.70;74.80;;;;;;4935780;29;20079;-70
2022/03/22 08:45:39;;;;;;;63.45;36.97;;;9.80;74.60;;;;;;4937028;29;20055;-70
2022/03/22 08:48:11;;;;;;;68.03;37.83;;;10.00;74.40;;;;;;4935242;29;20055;-70
2022/03/22 08:50:42;;;;;;;65.70;38.38;;;10.10;74.10;;;;;;4934901;29;20550;-70
2022/03/22 08:53:10;;;;;;;66.68;38.35;;;10.20;73.80;;;;;;4935165;29;20630;-70
2022/03/22 08:55:44;;;;;;;75.55;39.53;;;10.20;73.70;;;;;;4934265;29;20047;-70
2022/03/22 08:58:13;;;;;;;72.60;38.47;;;10.20;73.40;;;;;;4934965;29;20044;-70
2022/03/22 09:00:41;;;;;;;68.88;39.80;;;10.20;73.40;;;;;;4935140;29;20054;-70
2022/03/22 09:03:10;;;;;;;70.28;38.50;;;10.20;73.30;;;;;;4934888;29;20048;-71
2022/03/22 09:08:28;;;;;;;72.60;39.42;;;10.30;73.20;;;;;;4936213;29;20044;-70
2022/03/22 09:10:56;;;;;;;79.85;40.35;;;10.30;73.10;;;;;;4936610;29;20059;-70
2022/03/22 09:13:28;;;;;;;69.18;39.25;;;10.30;73.00;;;;;;4919297;29;20044;-70
2022/03/22 09:15:56;;;;;;;67.63;37.35;;;10.40;73.00;;;;;;4936020;29;20058;-70
2022/03/22 09:18:26;;;;;;;64.28;36.95;;;10.50;72.80;;;;;;4935464;29;20075;-70
2022/03/22 09:20:53;;;;;;;63.72;37.97;;;10.60;72.60;;;;;;4936360;29;20047;-70
2022/03/22 09:23:21;;;;;;;69.88;37.60;;;10.70;72.30;;;;;;4936346;29;20055;-70
2022/03/22 09:25:50;;;;;;;69.65;37.67;;;10.80;72.10;;;;;;4935573;29;20482;-70
2022/03/22 09:28:18;;;;;;;69.90;35.88;;;10.80;71.60;;;;;;4903309;29;20067;-70
2022/03/22 09:30:48;;;;;;;65.85;37.42;;;11.00;71.50;;;;;;4936189;29;20656;-70
2022/03/22 09:33:17;;;;;;;64.63;36.83;;;11.10;71.20;;;;;;4936279;29;20055;-70
2022/03/22 09:35:47;;;;;;;65.68;36.33;;;11.20;71.00;;;;;;4936137;29;20047;-70
2022/03/22 09:38:16;;;;;;;68.10;38.08;;;11.30;70.90;;;;;;4918279;29;20051;-70
2022/03/22 09:40:44;;;;;;;58.63;36.10;;;11.30;70.60;;;;;;4917084;29;20044;-70
2022/03/22 09:43:12;;;;;;;65.00;37.60;;;11.40;70.20;;;;;;4918998;29;20052;-71
2022/03/22 09:45:43;;;;;;;62.95;36.28;;;11.60;70.00;;;;;;4923780;29;20403;-72
2022/03/22 09:48:16;;;;;;;63.75;36.72;;;11.70;69.70;;;;;;4932930;29;20063;-69
2022/03/22 09:53:31;;;;;;;60.95;35.30;;;12.00;69.30;;;;;;4935959;29;20055;-70
2022/03/22 09:56:00;;;;;;;64.18;35.47;;;12.10;68.70;;;;;;4918864;29;20668;-70
2022/03/22 09:58:28;;;;;;;57.03;33.92;;;12.30;68.30;;;;;;4919694;29;20051;-71
2022/03/22 10:00:57;;;;;;;57.70;34.63;;;12.30;68.00;;;;;;4933334;29;20047;-69
2022/03/22 10:03:25;;;;;;;58.53;34.08;;;12.50;67.70;;;;;;4931237;29;20059;-70
2022/03/22 10:06:11;;;;;;;63.15;35.80;;;12.70;67.50;;;;;;4916755;29;20051;-70
2022/03/22 10:08:50;;;;;;;60.13;34.40;;;12.90;67.40;;;;;;4915929;29;20075;-70
2022/03/22 10:11:18;;;;;;;59.08;34.13;;;13.20;67.00;;;;;;4933280;29;20044;-70
2022/03/22 10:13:51;;;;;;;56.25;33.40;;;13.50;65.90;;;;;;4932239;29;20048;-70
2022/03/22 10:16:19;;;;;;;55.50;33.92;;;13.70;65.60;;;;;;4935037;29;20048;-71
2022/03/22 10:18:47;;;;;;;57.75;32.25;;;13.80;64.90;;;;;;4930445;29;20063;-70
2022/03/22 10:21:15;;;;;;;55.90;32.75;;;13.90;64.70;;;;;;4935137;29;20059;-70
2022/03/22 10:23:54;;;;;;;52.42;32.60;;;14.10;64.40;;;;;;4917831;29;20050;-70
2022/03/22 10:26:33;;;;;;;55.92;32.13;;;14.30;64.00;;;;;;4932152;29;20063;-70
2022/03/22 10:29:01;;;;;;;50.08;30.48;;;14.50;63.80;;;;;;4916502;29;20512;-69
2022/03/22 10:31:33;;;;;;;46.92;29.17;;;14.70;62.90;;;;;;4933951;29;20063;-71
2022/03/22 10:34:02;;;;;;;47.97;29.85;;;14.80;62.10;;;;;;4934224;29;20545;-71
2022/03/22 10:36:37;;;;;;;45.60;29.55;;;15.00;61.90;;;;;;4934753;29;20044;-71
2022/03/22 10:39:10;;;;;;;47.05;28.70;;;15.10;61.20;;;;;;4934888;29;20051;-70
2022/03/22 10:41:41;;;;;;;45.60;28.15;;;15.30;60.80;;;;;;4917827;29;20055;-70
2022/03/22 10:44:13;;;;;;;47.10;28.67;;;15.30;60.60;;;;;;4933032;29;20063;-71
2022/03/22 10:46:45;;;;;;;43.08;27.08;;;15.40;60.10;;;;;;4932568;29;20055;-71
2022/03/22 10:49:16;;;;;;;46.85;28.38;;;15.50;59.30;;;;;;4932790;29;20051;-70
2022/03/22 10:51:52;;;;;;;43.80;28.10;;;15.60;59.00;;;;;;4915659;29;20082;-71
2022/03/22 10:54:21;;;;;;;44.88;29.33;;;15.70;58.90;;;;;;4932745;29;20048;-69
2022/03/22 10:56:51;;;;;;;47.25;29.63;;;15.70;58.40;;;;;;4932245;29;20047;-70
2022/03/22 10:59:25;;;;;;;45.30;29.20;;;15.80;57.70;;;;;;4932695;29;20063;-71
2022/03/22 11:01:55;;;;;;;46.47;29.10;;;15.80;57.60;;;;;;4933103;29;20058;-70
2022/03/22 11:04:24;;;;;;;50.88;30.77;;;15.80;57.50;;;;;;4934666;29;20049;-69
2022/03/22 11:06:54;;;;;;;48.05;30.48;;;15.90;57.20;;;;;;4917651;29;20055;-70
2022/03/22 11:09:24;;;;;;;52.22;31.15;;;16.00;56.90;;;;;;4901213;29;20561;-70
2022/03/22 11:11:52;;;;;;;50.22;29.23;;;16.10;56.50;;;;;;4934470;29;20048;-69
2022/03/22 11:14:20;;;;;;;47.42;29.70;;;16.10;56.20;;;;;;4934376;29;20063;-70
2022/03/22 11:16:50;;;;;;;45.08;29.90;;;16.10;56.20;;;;;;4933649;29;20059;-69
2022/03/22 11:19:22;;;;;;;47.60;29.60;;;16.20;56.30;;;;;;4921653;29;20051;-70
2022/03/22 11:21:51;;;;;;;43.75;30.00;;;16.30;56.10;;;;;;4940764;29;20417;-69
2022/03/22 11:24:24;;;;;;;43.60;28.48;;;16.30;56.10;;;;;;4922507;29;20060;-69
2022/03/22 11:26:56;;;;;;;46.97;29.65;;;16.50;55.50;;;;;;4936203;29;20052;-69
2022/03/22 11:29:25;;;;;;;44.25;30.08;;;16.70;55.50;;;;;;4919048;29;20055;-69
2022/03/22 11:34:41;;;;;;;45.20;29.77;;;16.90;55.30;;;;;;4936339;29;20070;-69
2022/03/22 11:37:10;;;;;;;44.95;30.80;;;17.00;54.80;;;;;;4936400;29;20598;-69
2022/03/22 11:42:25;;;;;;;49.70;31.48;;;17.30;53.60;;;;;;4916866;29;20078;-70
2022/03/22 11:45:02;;;;;;;50.50;31.50;;;17.30;53.20;;;;;;4899368;29;20051;-69
2022/03/22 11:47:41;;;;;;;49.25;30.60;;;17.50;53.10;;;;;;4917241;29;20052;-69
2022/03/22 11:50:13;;;;;;;48.22;30.63;;;17.50;53.20;;;;;;4917349;29;20083;-70
2022/03/22 11:52:41;;;;;;;47.00;31.08;;;17.70;52.70;;;;;;4917270;29;20048;-69
2022/03/22 11:55:20;;;;;;;50.78;29.63;;;17.70;52.50;;;;;;4916767;29;20056;-69
2022/03/22 11:57:52;;;;;;;44.78;29.90;;;17.80;52.20;;;;;;4900183;29;20055;-69
2022/03/22 12:00:45;;;;;;;45.10;29.58;;;17.80;52.10;;;;;;4917439;29;20052;-70
2022/03/22 12:03:16;;;;;;;42.88;29.52;;;17.80;51.90;;;;;;4916940;29;20055;-69
2022/03/22 12:05:44;;;;;;;41.25;29.33;;;17.90;51.70;;;;;;4917000;29;20067;-69
2022/03/22 12:08:15;;;;;;;44.50;28.55;;;18.00;51.90;;;;;;4899432;29;20422;-70
2022/03/22 12:10:51;;;;;;;51.28;28.73;;;18.20;51.20;;;;;;4916607;29;20056;-70
2022/03/22 12:13:19;;;;;;;50.05;29.92;;;18.40;51.10;;;;;;4915970;29;20044;-69
2022/03/22 12:15:56;;;;;;;48.25;29.80;;;18.60;50.80;;;;;;4916437;29;20467;-69
2022/03/22 12:18:29;;;;;;;43.10;28.98;;;18.90;50.80;;;;;;4921400;29;20055;-69
2022/03/22 12:20:58;;;;;;;53.00;33.40;;;19.30;49.60;;;;;;4934812;29;20063;-68
2022/03/22 12:23:27;;;;;;;50.78;31.45;;;19.50;49.20;;;;;;4933032;29;20062;-69
2022/03/22 12:25:55;;;;;;;44.17;27.63;;;19.90;48.50;;;;;;4934877;29;20043;-69
2022/03/22 12:28:23;;;;;;;39.78;26.90;;;20.20;47.50;;;;;;4934708;29;20558;-70
2022/03/22 12:30:51;;;;;;;41.95;25.67;;;20.40;45.80;;;;;;4914610;29;20476;-70
2022/03/22 12:33:21;;;;;;;39.72;26.40;;;20.50;45.60;;;;;;4931846;29;20408;-68
2022/03/22 12:35:50;;;;;;;37.35;25.83;;;20.70;45.40;;;;;;4931071;29;20502;-69
2022/03/22 12:38:19;;;;;;;42.40;27.05;;;20.80;44.90;;;;;;4918432;29;20059;-68
2022/03/22 12:40:47;;;;;;;43.30;27.92;;;21.10;45.10;;;;;;4928855;29;20056;-69
2022/03/22 12:43:19;;;;;;;45.53;28.70;;;21.40;45.00;;;;;;4933150;29;20048;-69
2022/03/22 12:45:49;;;;;;;43.88;28.67;;;21.80;43.90;;;;;;4926164;29;20046;-69
2022/03/22 12:48:19;;;;;;;39.67;27.55;;;21.80;42.70;;;;;;4932303;29;20052;-69
2022/03/22 12:50:49;;;;;;;45.80;27.40;;;21.80;42.90;;;;;;4923631;29;20032;-69
2022/03/22 12:53:17;;;;;;;42.85;27.65;;;22.00;42.40;;;;;;4935018;29;20055;-69
2022/03/22 12:55:45;;;;;;;42.53;29.05;;;22.10;41.70;;;;;;4918190;29;20052;-69
2022/03/22 12:58:13;;;;;;;40.65;27.83;;;22.20;41.20;;;;;;4922962;29;20075;-69
2022/03/22 13:00:41;;;;;;;43.75;29.60;;;22.30;41.20;;;;;;4936645;29;20067;-68
2022/03/22 13:03:11;;;;;;;42.20;27.33;;;22.50;40.80;;;;;;4936519;29;20406;-69
2022/03/22 13:05:43;;;;;;;37.50;27.25;;;22.60;40.30;;;;;;4936818;29;20058;-70
2022/03/22 13:08:20;;;;;;;36.95;27.08;;;22.80;39.90;;;;;;4935533;29;20054;-70
2022/03/22 13:16:28;;;;;;;39.28;28.30;;;22.80;39.80;;;;;;4936256;29;20058;-68
2022/03/22 13:19:00;;;;;;;39.30;26.30;;;23.00;39.40;;;;;;4916098;29;20424;-69
2022/03/22 13:21:30;;;;;;;44.23;28.43;;;23.30;39.10;;;;;;4936141;29;20059;-68